createdAt,value
2022-11-17T00:01:29.487Z,8.60
2022-11-17T00:04:00.917Z,8.80
2022-11-17T00:06:32.356Z,8.80
2022-11-17T00:09:03.572Z,8.70
2022-11-17T00:11:53.843Z,8.70
2022-11-17T00:14:34.111Z,8.60
2022-11-17T00:17:07.838Z,8.50
2022-11-17T00:19:57.206Z,8.50
2022-11-17T00:22:30.047Z,8.50
2022-11-17T00:25:01.428Z,8.50
2022-11-17T00:27:32.647Z,8.40
2022-11-17T00:30:03.948Z,8.40
2022-11-17T00:32:52.955Z,8.40
2022-11-17T00:35:24.141Z,8.40
2022-11-17T00:38:17.112Z,8.40
2022-11-17T00:40:48.467Z,8.40
2022-11-17T00:43:19.540Z,8.40
2022-11-17T00:45:49.462Z,8.40
2022-11-17T00:48:20.551Z,8.50
2022-11-17T00:50:51.778Z,8.50
2022-11-17T00:53:22.959Z,8.50
2022-11-17T00:55:54.164Z,8.60
2022-11-17T00:58:25.444Z,8.60
2022-11-17T01:00:56.658Z,8.70
2022-11-17T01:03:27.767Z,8.70
2022-11-17T01:06:04.772Z,8.70
2022-11-17T01:08:36.583Z,8.70
2022-11-17T01:11:11.199Z,8.70
2022-11-17T01:13:43.790Z,8.70
2022-11-17T01:16:17.197Z,8.60
2022-11-17T01:18:50.273Z,8.50
2022-11-17T01:21:23.319Z,8.50
2022-11-17T01:23:57.377Z,8.50
2022-11-17T01:26:30.769Z,8.40
2022-11-17T01:29:03.185Z,8.40
2022-11-17T01:31:36.508Z,8.40
2022-11-17T01:34:08.777Z,8.40
2022-11-17T01:37:00.767Z,8.40
2022-11-17T01:39:32.854Z,8.40
2022-11-17T01:42:08.014Z,8.50
2022-11-17T01:45:03.258Z,8.50
2022-11-17T01:47:40.138Z,8.50
2022-11-17T01:50:17.490Z,8.40
2022-11-17T01:52:49.891Z,8.40
2022-11-17T01:55:24.261Z,8.30
2022-11-17T01:57:58.959Z,8.30
2022-11-17T02:00:31.706Z,8.30
2022-11-17T02:03:05.167Z,8.30
2022-11-17T02:05:45.469Z,8.20
2022-11-17T02:08:17.221Z,8.10
2022-11-17T02:10:51.798Z,8.10
2022-11-17T02:13:25.780Z,8.00
2022-11-17T02:15:56.959Z,7.90
2022-11-17T02:18:28.438Z,7.90
2022-11-17T02:21:09.879Z,7.90
2022-11-17T02:24:14.350Z,7.90
2022-11-17T02:27:06.223Z,7.80
2022-11-17T02:29:40.712Z,7.70
2022-11-17T02:32:15.223Z,7.70
2022-11-17T02:34:49.741Z,7.60
2022-11-17T02:37:24.500Z,7.60
2022-11-17T02:39:58.884Z,7.80
2022-11-17T02:42:52.291Z,8.20
2022-11-17T02:45:26.799Z,8.30
2022-11-17T02:48:01.280Z,8.30
2022-11-17T02:50:34.189Z,8.30
2022-11-17T02:53:06.218Z,8.40
2022-11-17T02:55:38.317Z,8.60
2022-11-17T02:58:12.955Z,8.80
2022-11-17T03:00:47.300Z,9.00
2022-11-17T03:03:26.461Z,9.10
2022-11-17T03:06:01.141Z,9.30
2022-11-17T03:08:36.106Z,9.50
2022-11-17T03:11:09.276Z,9.40
2022-11-17T03:13:46.537Z,9.30
2022-11-17T03:16:24.271Z,9.10
2022-11-17T03:19:03.493Z,9.00
2022-11-17T03:21:38.137Z,8.90
2022-11-17T03:24:14.395Z,8.80
2022-11-17T03:26:50.019Z,8.70
2022-11-17T03:29:24.541Z,8.60
2022-11-17T03:31:58.218Z,8.80
2022-11-17T03:34:32.842Z,8.80
2022-11-17T03:37:07.124Z,8.80
2022-11-17T03:39:41.197Z,8.80
2022-11-17T03:42:15.831Z,8.80
2022-11-17T03:44:50.725Z,8.90
2022-11-17T03:47:24.490Z,8.90
2022-11-17T03:49:58.910Z,8.90
2022-11-17T03:52:31.837Z,8.90
2022-11-17T03:55:03.990Z,8.90
2022-11-17T03:57:38.440Z,8.80
2022-11-17T04:00:14.244Z,8.80
2022-11-17T04:02:47.700Z,8.70
2022-11-17T04:05:20.129Z,8.60
2022-11-17T04:07:51.567Z,8.60
2022-11-17T04:10:26.349Z,8.50
2022-11-17T04:13:15.123Z,8.50
2022-11-17T04:15:59.403Z,8.50
2022-11-17T04:18:31.231Z,8.40
2022-11-17T04:21:03.041Z,8.40
2022-11-17T04:23:34.610Z,8.30
2022-11-17T04:26:24.065Z,8.40
2022-11-17T04:28:55.407Z,8.40
2022-11-17T04:31:28.806Z,8.40
2022-11-17T04:34:01.218Z,8.30
2022-11-17T04:36:35.134Z,8.30
2022-11-17T04:39:06.734Z,8.30
2022-11-17T04:41:59.351Z,8.30
2022-11-17T04:44:32.659Z,8.30
2022-11-17T04:47:04.136Z,8.20
2022-11-17T04:49:35.432Z,8.20
2022-11-17T04:52:07.036Z,8.20
2022-11-17T04:54:38.159Z,8.20
2022-11-17T04:57:08.084Z,8.20
2022-11-17T04:59:39.092Z,8.40
2022-11-17T05:02:10.408Z,8.40
2022-11-17T05:04:56.771Z,8.40
2022-11-17T05:07:28.010Z,8.50
2022-11-17T05:09:59.367Z,8.60
2022-11-17T05:12:48.577Z,8.70
2022-11-17T05:15:21.464Z,8.60
2022-11-17T05:17:52.651Z,8.70
2022-11-17T05:20:23.872Z,8.70
2022-11-17T05:23:12.781Z,8.80
2022-11-17T05:25:44.087Z,8.80
2022-11-17T05:28:15.225Z,8.80
2022-11-17T05:30:46.590Z,8.80
2022-11-17T05:33:17.896Z,8.80
2022-11-17T05:35:49.082Z,8.80
2022-11-17T05:38:20.266Z,8.80
2022-11-17T05:40:51.496Z,8.70
2022-11-17T05:43:23.190Z,8.60
2022-11-17T05:45:54.512Z,8.60
2022-11-17T05:48:25.970Z,8.50
2022-11-17T05:50:58.288Z,8.50
2022-11-17T05:53:31.344Z,8.40
2022-11-17T05:56:17.177Z,8.30
2022-11-17T05:58:51.436Z,8.30
2022-11-17T06:01:23.736Z,8.20
2022-11-17T06:03:58.441Z,8.20
2022-11-17T06:06:31.274Z,8.20
2022-11-17T06:09:02.792Z,8.20
2022-11-17T06:11:33.882Z,8.20
2022-11-17T06:14:03.917Z,8.10
2022-11-17T06:16:38.066Z,8.10
2022-11-17T06:19:12.528Z,8.10
2022-11-17T06:22:10.423Z,8.00
2022-11-17T06:24:17.415Z,7.90
2022-11-17T06:26:48.768Z,7.90
2022-11-17T06:29:21.140Z,7.80
2022-11-17T06:31:53.615Z,7.70
2022-11-17T06:34:27.571Z,7.60
2022-11-17T06:36:58.741Z,7.50
2022-11-17T06:39:29.839Z,7.40
2022-11-17T06:41:59.749Z,7.40
2022-11-17T06:44:30.714Z,7.30
2022-11-17T06:47:00.723Z,7.20
2022-11-17T06:49:32.070Z,7.10
2022-11-17T06:52:03.382Z,7.10
2022-11-17T06:54:34.603Z,7.10
2022-11-17T06:57:05.921Z,7.00
2022-11-17T06:59:37.321Z,7.00
2022-11-17T07:02:08.560Z,7.00
2022-11-17T07:04:41.176Z,7.00
2022-11-17T07:07:14.158Z,7.00
2022-11-17T07:09:45.399Z,6.90
2022-11-17T07:12:15.942Z,6.90
2022-11-17T07:14:47.162Z,6.90
2022-11-17T07:17:18.522Z,6.90
2022-11-17T07:19:49.835Z,6.90
2022-11-17T07:22:20.974Z,6.90
2022-11-17T07:24:52.315Z,6.90
2022-11-17T07:27:23.519Z,6.90
2022-11-17T07:29:54.859Z,6.90
2022-11-17T07:32:26.828Z,6.90
2022-11-17T07:34:59.887Z,6.80
2022-11-17T07:37:33.451Z,6.80
2022-11-17T07:40:05.211Z,6.90
2022-11-17T07:42:36.619Z,6.90
2022-11-17T07:45:09.833Z,6.90
2022-11-17T07:47:41.014Z,6.90
2022-11-17T07:50:12.657Z,7.00
2022-11-17T07:52:43.938Z,7.00
2022-11-17T07:55:15.423Z,7.10
2022-11-17T07:57:47.702Z,7.20
2022-11-17T08:00:19.738Z,7.30
2022-11-17T08:02:50.984Z,7.40
2022-11-17T08:05:22.434Z,7.50
2022-11-17T08:07:57.820Z,7.60
2022-11-17T08:10:31.286Z,7.70
2022-11-17T08:13:02.646Z,7.80
2022-11-17T08:15:33.935Z,8.00
2022-11-17T08:18:06.228Z,8.20
2022-11-17T08:20:37.788Z,8.30
2022-11-17T08:23:09.065Z,8.30
2022-11-17T08:25:40.288Z,8.40
2022-11-17T08:28:11.629Z,8.40
2022-11-17T08:30:44.335Z,8.40
2022-11-17T08:33:15.808Z,8.40
2022-11-17T08:35:46.975Z,8.40
2022-11-17T08:38:18.756Z,8.40
2022-11-17T08:40:50.099Z,8.30
2022-11-17T08:43:21.293Z,8.30
2022-11-17T08:45:52.544Z,8.30
2022-11-17T08:48:24.014Z,8.30
2022-11-17T08:50:55.285Z,8.40
2022-11-17T08:53:27.130Z,8.40
2022-11-17T08:55:58.352Z,8.50
2022-11-17T08:58:29.621Z,8.60
2022-11-17T09:01:05.161Z,8.70
2022-11-17T09:03:33.655Z,8.80
2022-11-17T09:06:06.378Z,8.90
2022-11-17T09:08:45.489Z,9.10
2022-11-17T09:11:12.507Z,9.20
2022-11-17T09:13:45.575Z,9.30
2022-11-17T09:16:17.449Z,9.30
2022-11-17T09:18:48.583Z,9.30
2022-11-17T09:21:19.982Z,9.30
2022-11-17T09:23:51.301Z,9.30
2022-11-17T09:26:23.114Z,9.30
2022-11-17T09:28:54.688Z,9.30
2022-11-17T09:31:26.085Z,9.30
2022-11-17T09:34:00.851Z,9.40
2022-11-17T09:36:30.452Z,9.30
2022-11-17T09:39:01.999Z,9.30
2022-11-17T09:41:38.050Z,9.20
2022-11-17T09:44:18.760Z,9.20
2022-11-17T09:47:02.844Z,9.30
2022-11-17T09:49:40.500Z,9.30
2022-11-17T09:52:17.143Z,9.30
2022-11-17T09:54:53.215Z,9.30
2022-11-17T09:57:28.841Z,9.40
2022-11-17T10:00:07.185Z,9.40
2022-11-17T10:02:38.468Z,9.50
2022-11-17T10:05:16.809Z,9.50
2022-11-17T10:07:51.973Z,9.60
2022-11-17T10:10:27.016Z,9.70
2022-11-17T10:12:59.828Z,9.80
2022-11-17T10:15:33.407Z,9.90
2022-11-17T10:18:05.756Z,9.90
2022-11-17T10:20:36.924Z,9.90
2022-11-17T10:23:11.680Z,9.90
2022-11-17T10:25:44.556Z,9.90
2022-11-17T10:28:27.853Z,10.00
2022-11-17T10:31:01.068Z,10.00
2022-11-17T10:33:38.607Z,10.00
2022-11-17T10:36:16.731Z,10.10
2022-11-17T10:38:49.547Z,10.20
2022-11-17T10:41:23.898Z,10.30
2022-11-17T10:44:00.014Z,10.40
2022-11-17T10:46:43.159Z,10.50
2022-11-17T10:49:05.838Z,10.70
2022-11-17T10:51:37.280Z,10.80
2022-11-17T10:54:16.244Z,11.00
2022-11-17T10:56:50.488Z,11.00
2022-11-17T10:59:24.878Z,11.00
2022-11-17T11:01:56.171Z,11.00
2022-11-17T11:04:33.090Z,11.00
2022-11-17T11:07:13.147Z,11.00
2022-11-17T11:09:48.607Z,10.90
2022-11-17T11:12:23.320Z,10.90
2022-11-17T11:14:57.449Z,11.00
2022-11-17T11:17:30.546Z,11.10
2022-11-17T11:20:04.083Z,11.20
2022-11-17T11:22:40.562Z,11.30
2022-11-17T11:25:23.957Z,11.20
2022-11-17T11:28:03.761Z,11.20
2022-11-17T11:30:38.017Z,11.30
2022-11-17T11:33:18.195Z,11.40
2022-11-17T11:36:00.098Z,11.60
2022-11-17T11:38:39.961Z,11.70
2022-11-17T11:41:20.263Z,11.90
2022-11-17T11:43:59.080Z,12.10
2022-11-17T11:46:40.915Z,12.30
2022-11-17T11:49:19.661Z,12.50
2022-11-17T11:51:53.908Z,12.60
2022-11-17T11:54:30.476Z,12.70
2022-11-17T11:57:02.908Z,12.80
2022-11-17T11:59:40.922Z,13.00
2022-11-17T12:02:21.932Z,13.20
2022-11-17T12:04:57.325Z,13.30
2022-11-17T12:07:32.543Z,13.50
2022-11-17T12:10:07.123Z,13.70
2022-11-17T12:12:40.653Z,13.90
2022-11-17T12:15:15.925Z,14.00
2022-11-17T12:18:00.920Z,14.20
2022-11-17T12:20:57.554Z,14.40
2022-11-17T12:23:37.837Z,14.50
2022-11-17T12:26:08.493Z,14.50
2022-11-17T12:28:41.124Z,14.70
2022-11-17T12:31:15.094Z,14.90
2022-11-17T12:34:12.510Z,15.10
2022-11-17T12:36:44.252Z,15.30
2022-11-17T12:39:57.067Z,15.40
2022-11-17T12:42:28.677Z,15.50
2022-11-17T12:45:18.346Z,15.70
2022-11-17T12:48:11.303Z,15.80
2022-11-17T12:50:39.181Z,15.80
2022-11-17T12:53:54.154Z,15.70
2022-11-17T12:56:46.975Z,15.70
2022-11-17T12:59:49.353Z,15.70
2022-11-17T13:02:36.314Z,15.50
2022-11-17T13:05:10.648Z,15.40
2022-11-17T13:07:42.093Z,15.20
2022-11-17T13:10:26.575Z,15.10
2022-11-17T13:13:14.523Z,15.00
2022-11-17T13:15:47.603Z,15.00
2022-11-17T13:18:27.852Z,15.10
2022-11-17T13:20:58.913Z,15.30
2022-11-17T13:23:31.243Z,15.40
2022-11-17T13:26:12.523Z,15.30
2022-11-17T13:28:44.568Z,15.20
2022-11-17T13:31:19.398Z,15.00
2022-11-17T13:34:01.137Z,14.90
2022-11-17T13:36:32.594Z,14.80
2022-11-17T13:39:04.939Z,14.60
2022-11-17T13:41:39.668Z,14.40
2022-11-17T13:44:16.343Z,14.20
2022-11-17T13:46:47.862Z,14.10
2022-11-17T13:49:35.403Z,14.00
2022-11-17T13:52:08.652Z,13.90
2022-11-17T13:54:44.138Z,13.90
2022-11-17T13:57:20.359Z,13.80
2022-11-17T13:59:51.977Z,13.70
2022-11-17T14:02:29.880Z,13.60
2022-11-17T14:08:23.350Z,13.50
2022-11-17T14:11:05.825Z,13.40
2022-11-17T14:13:40.972Z,13.40
2022-11-17T14:16:24.840Z,13.40
2022-11-17T14:19:02.523Z,13.40
2022-11-17T14:21:34.192Z,13.40
2022-11-17T14:24:09.942Z,13.50
2022-11-17T14:26:45.437Z,13.50
2022-11-17T14:29:17.029Z,13.40
2022-11-17T14:31:48.186Z,13.50
2022-11-17T14:34:19.500Z,13.40
2022-11-17T14:36:53.390Z,13.40
2022-11-17T14:39:26.967Z,13.40
2022-11-17T14:41:58.330Z,13.50
2022-11-17T14:44:29.536Z,13.50
2022-11-17T14:47:00.716Z,13.50
2022-11-17T14:49:30.475Z,13.50
2022-11-17T14:52:02.658Z,13.50
2022-11-17T14:54:33.838Z,13.40
2022-11-17T14:57:05.334Z,13.40
2022-11-17T14:59:39.813Z,13.40
2022-11-17T15:02:11.716Z,13.50
2022-11-17T15:04:50.364Z,13.70
2022-11-17T15:07:15.940Z,13.80
2022-11-17T15:09:47.127Z,13.90
2022-11-17T15:12:18.458Z,13.90
2022-11-17T15:14:49.930Z,14.00
2022-11-17T15:17:21.310Z,14.00
2022-11-17T15:19:53.116Z,14.00
2022-11-17T15:22:24.040Z,14.00
2022-11-17T15:24:55.249Z,13.90
2022-11-17T15:27:27.013Z,13.90
2022-11-17T15:29:58.208Z,13.80
2022-11-17T15:32:30.394Z,13.70
2022-11-17T15:35:01.626Z,13.80
2022-11-17T15:37:32.824Z,13.60
2022-11-17T15:40:05.980Z,13.60
2022-11-17T15:42:38.626Z,13.50
2022-11-17T15:45:11.984Z,13.40
2022-11-17T15:47:43.397Z,13.30
2022-11-17T15:50:14.677Z,13.20
2022-11-17T15:53:03.439Z,13.00
2022-11-17T15:55:18.815Z,12.90
2022-11-17T15:57:50.091Z,12.80
2022-11-17T16:00:21.889Z,12.70
2022-11-17T16:02:58.333Z,12.60
2022-11-17T16:05:25.958Z,12.60
2022-11-17T16:07:57.750Z,12.60
2022-11-17T16:10:28.868Z,12.60
2022-11-17T16:13:00.042Z,12.70
2022-11-17T16:15:31.214Z,12.80
2022-11-17T16:18:02.342Z,12.70
2022-11-17T16:20:33.756Z,12.50
2022-11-17T16:23:04.975Z,12.40
2022-11-17T16:25:41.607Z,12.10
2022-11-17T16:28:14.187Z,11.90
2022-11-17T16:30:45.749Z,11.70
2022-11-17T16:33:17.258Z,11.40
2022-11-17T16:35:48.516Z,11.30
2022-11-17T16:38:19.853Z,11.20
2022-11-17T16:40:51.201Z,11.20
2022-11-17T16:43:22.496Z,11.10
2022-11-17T16:45:54.826Z,11.00
2022-11-17T16:48:26.045Z,10.80
2022-11-17T16:50:57.873Z,10.70
2022-11-17T16:53:29.773Z,10.70
2022-11-17T16:56:05.600Z,10.60
2022-11-17T16:58:37.291Z,10.60
2022-11-17T17:01:13.205Z,10.50
2022-11-17T17:03:44.730Z,10.40
2022-11-17T17:06:18.369Z,10.50
2022-11-17T17:08:50.989Z,10.40
2022-11-17T17:11:22.567Z,10.40
2022-11-17T17:13:53.834Z,10.40
2022-11-17T17:16:26.083Z,10.30
2022-11-17T17:18:59.382Z,10.30
2022-11-17T17:21:32.440Z,10.30
2022-11-17T17:24:04.701Z,10.30
2022-11-17T17:26:37.214Z,10.20
2022-11-17T17:29:09.005Z,10.10
2022-11-17T17:31:42.330Z,10.00
2022-11-17T17:34:14.658Z,9.90
2022-11-17T17:36:45.990Z,9.80
2022-11-17T17:39:18.396Z,9.80
2022-11-17T17:41:49.782Z,9.80
2022-11-17T17:44:21.555Z,9.70
2022-11-17T17:46:52.911Z,9.80
2022-11-17T17:49:27.437Z,9.90
2022-11-17T17:51:58.834Z,10.00
2022-11-17T17:54:30.023Z,10.10
2022-11-17T17:57:02.295Z,10.20
2022-11-17T17:59:33.458Z,10.30
2022-11-17T18:02:04.758Z,10.50
2022-11-17T18:04:35.991Z,10.60
2022-11-17T18:07:09.250Z,10.70
2022-11-17T18:09:40.079Z,10.70
2022-11-17T18:12:11.362Z,10.60
2022-11-17T18:14:43.839Z,10.50
2022-11-17T18:17:15.202Z,10.30
2022-11-17T18:19:46.360Z,10.20
2022-11-17T18:22:17.613Z,10.20
2022-11-17T18:24:49.537Z,10.30
2022-11-17T18:27:20.534Z,10.40
2022-11-17T18:29:52.162Z,10.50
2022-11-17T18:32:23.915Z,10.60
2022-11-17T18:34:55.216Z,10.70
2022-11-17T18:37:26.664Z,10.80
2022-11-17T18:39:58.124Z,10.90
2022-11-17T18:42:29.669Z,11.00
2022-11-17T18:45:00.949Z,11.00
2022-11-17T18:47:32.478Z,10.90
2022-11-17T18:50:03.917Z,11.00
2022-11-17T18:52:35.199Z,11.00
2022-11-17T18:55:08.398Z,10.80
2022-11-17T18:57:44.733Z,10.70
2022-11-17T19:00:17.298Z,10.60
2022-11-17T19:02:49.110Z,10.60
2022-11-17T19:05:20.801Z,10.60
2022-11-17T19:07:53.884Z,10.60
2022-11-17T19:10:25.275Z,10.60
2022-11-17T19:12:56.884Z,10.60
2022-11-17T19:15:28.621Z,10.60
2022-11-17T19:17:59.972Z,10.70
2022-11-17T19:20:31.836Z,10.70
2022-11-17T19:23:03.221Z,10.70
2022-11-17T19:25:37.794Z,10.70
2022-11-17T19:28:12.570Z,10.80
2022-11-17T19:30:44.286Z,10.90
2022-11-17T19:33:15.819Z,11.10
2022-11-17T19:35:47.444Z,11.20
2022-11-17T19:38:19.114Z,11.30
2022-11-17T19:40:50.382Z,11.50
2022-11-17T19:43:21.667Z,11.60
2022-11-17T19:45:53.054Z,11.60
2022-11-17T19:48:24.358Z,11.60
2022-11-17T19:50:56.289Z,11.60
2022-11-17T19:53:28.567Z,11.70
2022-11-17T19:56:01.397Z,11.70
2022-11-17T19:58:32.721Z,11.70
2022-11-17T20:01:11.477Z,11.60
2022-11-17T20:04:01.448Z,11.50
2022-11-17T20:06:37.224Z,11.20
2022-11-17T20:09:10.795Z,11.00
2022-11-17T20:11:42.708Z,10.70
2022-11-17T20:14:15.003Z,10.50
2022-11-17T20:16:46.300Z,10.30
2022-11-17T20:19:17.862Z,10.10
2022-11-17T20:21:49.391Z,9.90
2022-11-17T20:24:20.697Z,9.80
2022-11-17T20:26:51.968Z,9.70
2022-11-17T20:29:23.267Z,9.60
2022-11-17T20:31:54.412Z,9.60
2022-11-17T20:34:26.383Z,9.60
2022-11-17T20:37:00.706Z,9.50
2022-11-17T20:39:32.171Z,9.50
2022-11-17T20:42:03.516Z,9.40
2022-11-17T20:44:34.726Z,9.40
2022-11-17T20:47:06.375Z,9.40
2022-11-17T20:49:37.694Z,9.30
2022-11-17T20:52:13.195Z,9.30
2022-11-17T20:54:41.932Z,9.40
2022-11-17T20:57:13.397Z,9.30
2022-11-17T20:59:45.566Z,9.30
2022-11-17T21:02:16.985Z,9.30
2022-11-17T21:04:48.249Z,9.30
2022-11-17T21:07:19.695Z,9.20
2022-11-17T21:09:50.995Z,9.20
2022-11-17T21:12:22.231Z,9.30
2022-11-17T21:14:53.605Z,9.30
2022-11-17T21:17:42.968Z,9.30
2022-11-17T21:20:14.578Z,9.20
2022-11-17T21:22:45.941Z,9.20
2022-11-17T21:25:17.511Z,9.20
2022-11-17T21:27:49.072Z,9.20
2022-11-17T21:30:20.858Z,9.20
2022-11-17T21:32:51.724Z,9.20
2022-11-17T21:35:23.095Z,9.20
2022-11-17T21:37:55.658Z,9.20
2022-11-17T21:40:26.997Z,9.10
2022-11-17T21:42:59.422Z,9.10
2022-11-17T21:45:30.798Z,9.20
2022-11-17T21:48:02.010Z,9.10
2022-11-17T21:50:33.326Z,9.10
2022-11-17T21:53:04.531Z,9.10
2022-11-17T21:55:35.851Z,9.10
2022-11-17T21:58:06.913Z,9.10
2022-11-17T22:00:36.873Z,9.10
2022-11-17T22:03:08.099Z,9.00
2022-11-17T22:05:39.259Z,9.00
2022-11-17T22:08:11.276Z,9.00
2022-11-17T22:10:42.640Z,9.00
2022-11-17T22:13:13.891Z,8.90
2022-11-17T22:15:45.843Z,8.90
2022-11-17T22:18:17.126Z,8.90
2022-11-17T22:20:52.926Z,8.90
2022-11-17T22:23:24.400Z,8.90
2022-11-17T22:25:57.105Z,8.90
2022-11-17T22:28:33.392Z,8.90
2022-11-17T22:31:08.031Z,8.90
2022-11-17T22:33:39.941Z,8.90
2022-11-17T22:36:12.348Z,8.90
2022-11-17T22:38:43.891Z,8.90
2022-11-17T22:41:15.178Z,8.90
2022-11-17T22:43:50.483Z,8.90
2022-11-17T22:46:22.708Z,8.90
2022-11-17T22:48:54.462Z,8.80
2022-11-17T22:51:43.775Z,8.80
2022-11-17T22:54:15.107Z,8.70
2022-11-17T22:56:46.551Z,8.80
2022-11-17T22:59:18.035Z,8.80
2022-11-17T23:01:49.530Z,8.80
2022-11-17T23:04:22.875Z,8.90
2022-11-17T23:06:54.258Z,8.90
2022-11-17T23:09:25.469Z,8.90
2022-11-17T23:11:56.680Z,8.90
2022-11-17T23:14:28.098Z,8.90
2022-11-17T23:16:59.473Z,9.00
2022-11-17T23:19:30.682Z,9.00
2022-11-17T23:22:02.131Z,9.00
2022-11-17T23:24:33.266Z,9.00
2022-11-17T23:27:04.636Z,9.00
2022-11-17T23:29:35.872Z,8.90
2022-11-17T23:32:08.493Z,8.90
2022-11-17T23:34:39.730Z,8.90
2022-11-17T23:37:11.376Z,8.90
2022-11-17T23:39:42.871Z,8.90
2022-11-17T23:42:13.997Z,8.90
2022-11-17T23:44:45.243Z,8.90
2022-11-17T23:47:16.674Z,8.90
2022-11-17T23:49:47.867Z,8.90
2022-11-17T23:52:19.348Z,8.90
2022-11-17T23:54:50.601Z,8.80
2022-11-17T23:57:21.926Z,8.80
2022-11-17T23:59:53.169Z,8.80
